Time;durP1;ratioP1;P1;durP2;ratioP2;P2;SDS_P1;SDS_P2;PMS_P1;PMS_P2;Temp;Humidity;BMP_temperature;BMP_pressure;BME280_temperature;BME280_humidity;BME280_pressure;Samples;Min_cycle;Max_cycle;Signal;HPM_P1;HPM_P2
2024/03/04 00:01:12;;;;;;;24.42;19.15;;;;;;;8.12;76.20;96885.13;4995141;28;20149;-76
2024/03/04 00:03:38;;;;;;;24.67;19.17;;;;;;;8.20;76.95;96901.53;4975543;28;20038;-76
2024/03/04 00:06:04;;;;;;;24.75;19.13;;;;;;;8.18;77.14;96892.13;4996018;28;20390;-76
2024/03/04 00:08:31;;;;;;;24.13;18.02;;;;;;;8.08;77.35;96876.78;4993889;28;20030;-76
2024/03/04 00:10:57;;;;;;;25.40;18.70;;;;;;;8.19;76.89;96905.25;4979751;28;20034;-76
2024/03/04 00:13:22;;;;;;;22.77;18.08;;;;;;;8.00;76.21;96896.06;4987646;28;20034;-75
2024/03/04 00:15:48;;;;;;;23.45;18.80;;;;;;;8.05;76.71;96909.47;4996686;28;20474;-75
2024/03/04 00:18:14;;;;;;;24.52;18.65;;;;;;;8.00;76.68;96914.81;4987365;28;20038;-75
2024/03/04 00:20:40;;;;;;;25.05;19.77;;;;;;;8.02;76.43;96907.31;4995236;28;20022;-76
2024/03/04 00:23:05;;;;;;;22.30;18.75;;;;;;;7.85;76.07;96901.31;4994893;28;20073;-76
2024/03/04 00:25:31;;;;;;;26.50;20.00;;;;;;;7.89;76.66;96915.81;4989138;28;20031;-75
2024/03/04 00:27:57;;;;;;;24.23;19.52;;;;;;;7.82;76.20;96909.09;4991417;28;20048;-75
2024/03/04 00:30:24;;;;;;;24.77;19.83;;;;;;;7.79;76.99;96905.03;4995594;28;20031;-75
2024/03/04 00:32:50;;;;;;;23.23;19.10;;;;;;;7.89;76.96;96921.16;4977646;28;20043;-75
2024/03/04 00:35:15;;;;;;;23.88;18.55;;;;;;;7.83;77.20;96916.84;4991808;28;20029;-75
2024/03/04 00:37:41;;;;;;;23.55;18.92;;;;;;;7.88;76.99;96929.47;4996104;28;20400;-74
2024/03/04 00:40:08;;;;;;;23.85;19.00;;;;;;;7.76;76.70;96927.00;5003594;28;20556;-75
2024/03/04 00:42:34;;;;;;;22.77;19.15;;;;;;;7.75;77.45;96925.34;4975983;28;20034;-75
2024/03/04 00:44:59;;;;;;;24.30;19.35;;;;;;;7.67;77.29;96917.81;5013800;28;20030;-75
2024/03/04 00:47:25;;;;;;;23.80;19.20;;;;;;;7.62;77.07;96915.09;4976533;28;20046;-75
2024/03/04 00:49:50;;;;;;;23.48;19.50;;;;;;;7.63;77.18;96917.50;4969311;28;20023;-75
2024/03/04 00:52:17;;;;;;;24.30;19.48;;;;;;;7.60;77.10;96914.56;4994841;28;20098;-75
2024/03/04 00:54:45;;;;;;;25.85;19.65;;;;;;;7.57;77.43;96917.72;4991354;28;20022;-76
2024/03/04 00:57:11;;;;;;;23.05;18.95;;;;;;;7.53;77.27;96927.34;4983658;28;20065;-76
2024/03/04 00:59:37;;;;;;;24.42;19.38;;;;;;;7.48;77.05;96920.09;4994857;28;20023;-76
2024/03/04 01:02:06;;;;;;;22.85;19.05;;;;;;;7.46;77.70;96926.75;4986321;28;20033;-75
2024/03/04 01:04:32;;;;;;;23.45;18.95;;;;;;;7.54;77.18;96940.47;4985752;28;20029;-76
2024/03/04 01:06:57;;;;;;;22.73;18.38;;;;;;;7.48;78.03;96944.19;4993741;28;20037;-76
2024/03/04 01:09:23;;;;;;;21.98;19.35;;;;;;;7.39;77.82;96939.56;4973949;28;20391;-76
2024/03/04 01:11:48;;;;;;;23.92;20.13;;;;;;;7.39;77.61;96947.59;4994631;28;20038;-76
2024/03/04 01:14:14;;;;;;;24.05;19.20;;;;;;;7.26;77.97;96926.59;4992391;28;20101;-76
2024/03/04 01:16:42;;;;;;;26.10;20.05;;;;;;;7.35;78.18;96941.13;4987921;28;20038;-76
2024/03/04 01:19:08;;;;;;;25.83;20.10;;;;;;;7.33;77.79;96927.16;4992945;28;20411;-76
2024/03/04 01:21:34;;;;;;;25.58;20.00;;;;;;;7.36;78.54;96943.53;4983632;28;20089;-75
2024/03/04 01:23:59;;;;;;;25.23;20.95;;;;;;;7.36;78.93;96937.38;4995918;28;20054;-76
2024/03/04 01:26:25;;;;;;;24.33;19.67;;;;;;;7.40;78.28;96949.19;5009735;28;20041;-75
2024/03/04 01:28:50;;;;;;;26.95;21.38;;;;;;;7.39;78.75;96950.25;4989353;28;20376;-76
2024/03/04 01:31:18;;;;;;;24.98;20.40;;;;;;;7.32;78.33;96936.28;4984305;28;20034;-74
2024/03/04 01:33:47;;;;;;;22.90;19.25;;;;;;;7.37;78.71;96949.72;4988874;28;20023;-73
2024/03/04 01:36:12;;;;;;;25.63;21.38;;;;;;;7.41;78.48;96959.66;4998363;28;20065;-74
2024/03/04 01:38:38;;;;;;;23.15;19.95;;;;;;;7.26;78.68;96942.66;5017923;28;20018;-74
2024/03/04 01:41:03;;;;;;;24.52;19.40;;;;;;;7.30;78.26;96959.81;4985557;28;20035;-74
2024/03/04 01:43:29;;;;;;;27.35;21.13;;;;;;;7.28;78.63;96956.59;4991051;28;20127;-74
2024/03/04 01:45:54;;;;;;;26.35;20.92;;;;;;;7.17;78.90;96933.44;4971506;28;20042;-73
2024/03/04 01:48:20;;;;;;;26.00;22.00;;;;;;;7.24;79.21;96944.75;4979890;28;20029;-74
2024/03/04 01:50:47;;;;;;;26.00;21.33;;;;;;;7.31;78.97;96956.06;5014000;28;20434;-73
2024/03/04 01:53:13;;;;;;;25.65;20.35;;;;;;;7.29;79.94;96947.50;4983991;28;20498;-74
2024/03/04 01:55:41;;;;;;;29.00;21.88;;;;;;;7.39;79.38;96967.16;4999677;28;20077;-73
2024/03/04 01:58:11;;;;;;;26.55;20.52;;;;;;;7.35;79.56;96963.34;4983445;28;20018;-73
2024/03/04 02:00:39;;;;;;;25.98;21.30;;;;;;;7.33;79.31;96965.47;4996993;28;20299;-73
2024/03/04 02:03:06;;;;;;;25.95;21.60;;;;;;;7.30;78.97;96965.19;4997870;28;20022;-74
2024/03/04 02:05:32;;;;;;;27.05;21.02;;;;;;;7.28;79.40;96967.31;4976507;28;20045;-73
2024/03/04 02:07:59;;;;;;;26.75;21.35;;;;;;;7.20;78.52;96965.06;4990814;28;20029;-73
2024/03/04 02:10:25;;;;;;;27.15;21.90;;;;;;;7.18;78.72;96961.84;4987473;28;20052;-73
2024/03/04 02:12:50;;;;;;;26.52;20.30;;;;;;;7.18;78.75;96970.69;4988438;28;20526;-74
2024/03/04 02:15:16;;;;;;;24.25;19.88;;;;;;;7.11;78.14;96961.25;4988312;28;20034;-73
2024/03/04 02:17:41;;;;;;;25.73;21.58;;;;;;;7.23;79.24;96986.81;4991472;28;20030;-73
2024/03/04 02:20:10;;;;;;;29.60;22.48;;;;;;;7.13;78.34;96980.53;4992657;28;20117;-74
2024/03/04 02:22:36;;;;;;;25.58;21.38;;;;;;;7.11;78.74;96985.34;4981138;28;20022;-73
2024/03/04 02:25:03;;;;;;;28.52;22.65;;;;;;;7.10;79.39;97000.56;4960828;28;20407;-73
2024/03/04 02:27:29;;;;;;;26.33;20.90;;;;;;;6.95;78.27;96990.50;4990007;28;20030;-73
2024/03/04 02:29:54;;;;;;;32.95;25.63;;;;;;;6.93;78.74;96987.28;5013340;28;20038;-74
2024/03/04 02:32:21;;;;;;;26.85;21.83;;;;;;;6.90;79.08;97009.22;4999248;28;20026;-74
2024/03/04 02:34:49;;;;;;;28.33;22.42;;;;;;;6.85;79.26;97006.47;4982171;28;20536;-74
2024/03/04 02:37:14;;;;;;;26.02;21.17;;;;;;;6.72;79.29;96990.00;4987504;28;20485;-74
2024/03/04 02:39:41;;;;;;;26.15;21.52;;;;;;;6.88;79.73;97016.66;4993197;28;20034;-74
2024/03/04 02:42:06;;;;;;;26.98;21.10;;;;;;;6.63;79.97;96984.25;4971315;28;20504;-75
2024/03/04 02:44:32;;;;;;;25.45;20.65;;;;;;;6.69;79.81;96990.47;4979552;28;20129;-75
2024/03/04 02:46:58;;;;;;;24.38;19.83;;;;;;;6.70;79.14;97008.13;4979063;28;20033;-74
2024/03/04 02:49:23;;;;;;;29.73;22.45;;;;;;;6.69;78.66;97015.38;5002368;28;20050;-74
2024/03/04 02:51:50;;;;;;;24.73;21.27;;;;;;;6.65;79.36;96998.19;4995687;28;20041;-74
2024/03/04 02:54:16;;;;;;;30.05;23.77;;;;;;;6.68;78.98;97005.72;4997068;28;20038;-73
2024/03/04 02:56:41;;;;;;;28.20;23.05;;;;;;;6.61;79.48;96999.75;4976919;28;20018;-74
2024/03/04 02:59:07;;;;;;;29.45;21.73;;;;;;;6.60;79.83;96995.47;5017771;28;20074;-74
2024/03/04 03:01:32;;;;;;;26.45;21.80;;;;;;;6.66;79.48;96999.00;4992838;28;20077;-75
2024/03/04 03:03:58;;;;;;;30.20;23.77;;;;;;;6.72;79.12;97019.41;4995686;28;20626;-74
2024/03/04 03:06:28;;;;;;;30.63;23.65;;;;;;;6.62;79.90;97004.03;4987449;28;20045;-74
2024/03/04 03:08:56;;;;;;;31.13;25.33;;;;;;;6.73;79.87;97024.50;5002720;28;20490;-75
2024/03/04 03:11:22;;;;;;;30.98;24.00;;;;;;;6.69;80.54;97011.88;4980057;28;20051;-75
2024/03/04 03:13:48;;;;;;;29.98;23.85;;;;;;;6.67;80.42;97020.16;4989927;28;20137;-74
2024/03/04 03:16:18;;;;;;;31.25;23.90;;;;;;;6.62;80.99;97017.41;4998475;28;20044;-74
2024/03/04 03:18:43;;;;;;;30.13;24.60;;;;;;;6.68;80.88;97032.47;5010629;28;20099;-75
2024/03/04 03:21:08;;;;;;;31.73;24.27;;;;;;;6.73;80.48;97035.22;4983471;28;20165;-76
2024/03/04 03:23:35;;;;;;;28.75;22.88;;;;;;;6.70;80.33;97030.34;5010106;28;20033;-76
2024/03/04 03:26:01;;;;;;;27.35;21.90;;;;;;;6.71;80.94;97042.69;4984344;28;20430;-76
2024/03/04 03:28:27;;;;;;;31.38;24.75;;;;;;;6.58;80.16;97024.31;5004563;28;20038;-75
2024/03/04 03:30:53;;;;;;;32.85;24.02;;;;;;;6.56;79.75;97034.44;4991188;28;20029;-74
2024/03/04 03:33:19;;;;;;;29.90;24.15;;;;;;;6.61;80.54;97047.06;4990152;28;20109;-75
2024/03/04 03:35:44;;;;;;;30.63;23.77;;;;;;;6.55;80.28;97040.88;4990405;28;20033;-75
2024/03/04 03:38:10;;;;;;;31.85;25.70;;;;;;;6.43;79.72;97029.47;4982289;28;20517;-74
2024/03/04 03:40:36;;;;;;;34.97;26.75;;;;;;;6.36;80.12;97044.88;4989547;28;20458;-76
2024/03/04 03:43:02;;;;;;;33.45;25.85;;;;;;;6.36;80.73;97044.88;4991590;28;20041;-76
2024/03/04 03:45:27;;;;;;;31.77;24.48;;;;;;;6.30;80.40;97045.84;4993921;28;20030;-76
2024/03/04 03:47:52;;;;;;;35.28;25.50;;;;;;;6.23;80.25;97045.22;4979874;28;20073;-76
2024/03/04 03:50:18;;;;;;;34.17;25.30;;;;;;;6.28;80.20;97063.97;4993155;28;20053;-76
2024/03/04 03:52:43;;;;;;;31.92;24.85;;;;;;;6.20;80.02;97078.59;4976780;28;20482;-75
2024/03/04 03:55:09;;;;;;;30.48;23.08;;;;;;;6.05;79.91;97069.50;4985079;28;20030;-75
2024/03/04 03:57:35;;;;;;;30.10;22.88;;;;;;;6.07;80.12;97072.75;5009462;28;20498;-74
2024/03/04 04:00:00;;;;;;;28.88;23.55;;;;;;;6.07;79.20;97091.44;4968654;28;20049;-74
2024/03/04 04:02:26;;;;;;;28.77;23.05;;;;;;;6.00;79.13;97088.94;4972259;28;20069;-75
2024/03/04 04:04:51;;;;;;;31.15;24.17;;;;;;;5.92;78.80;97080.53;5009898;28;20026;-74
2024/03/04 04:07:18;;;;;;;27.15;21.85;;;;;;;5.95;79.20;97106.78;4983790;28;20045;-74
2024/03/04 04:09:44;;;;;;;29.75;23.45;;;;;;;5.72;79.12;97077.50;4991846;28;20022;-75
2024/03/04 04:12:09;;;;;;;29.80;24.08;;;;;;;5.78;79.00;97100.56;4998571;28;20038;-75
2024/03/04 04:14:35;;;;;;;28.60;22.38;;;;;;;5.71;79.05;97095.38;4988951;28;20053;-75
2024/03/04 04:17:00;;;;;;;27.80;22.45;;;;;;;5.69;78.52;97096.66;4992084;28;20034;-75
2024/03/04 04:19:26;;;;;;;27.90;21.98;;;;;;;5.64;79.49;97109.91;4973302;28;20061;-75
2024/03/04 04:21:51;;;;;;;27.25;22.48;;;;;;;5.66;79.28;97113.16;4990088;28;20133;-75
2024/03/04 04:24:17;;;;;;;29.63;23.00;;;;;;;5.65;79.78;97122.22;4991929;28;20447;-76
2024/03/04 04:26:42;;;;;;;30.88;22.70;;;;;;;5.47;79.59;97112.53;4987041;28;20034;-76
2024/03/04 04:29:08;;;;;;;31.42;24.70;;;;;;;5.52;79.90;97126.81;4997547;28;20030;-75
2024/03/04 04:31:34;;;;;;;32.95;24.48;;;;;;;5.47;79.59;97124.03;4966600;28;20042;-76
2024/03/04 04:33:59;;;;;;;29.92;23.73;;;;;;;5.51;79.94;97127.84;4992575;28;20049;-74
2024/03/04 04:36:25;;;;;;;34.38;26.27;;;;;;;5.47;79.60;97132.06;4987132;28;20058;-74
2024/03/04 04:38:51;;;;;;;31.25;24.13;;;;;;;5.47;80.01;97136.56;4994433;28;20417;-74
2024/03/04 04:41:17;;;;;;;29.20;23.02;;;;;;;5.45;79.55;97142.16;5001206;28;20034;-74
2024/03/04 04:43:42;;;;;;;28.17;23.35;;;;;;;5.28;79.91;97121.78;4972752;28;20089;-74
2024/03/04 04:46:07;;;;;;;32.10;24.58;;;;;;;5.32;80.26;97134.41;4989125;28;20038;-76
2024/03/04 04:48:34;;;;;;;34.55;24.98;;;;;;;5.35;80.03;97139.28;4991492;28;20108;-76
2024/03/04 04:51:00;;;;;;;29.98;23.90;;;;;;;5.38;79.75;97146.81;4959837;28;20051;-76
2024/03/04 04:53:25;;;;;;;29.25;24.33;;;;;;;5.27;79.96;97137.00;4997487;28;20510;-75
2024/03/04 04:55:51;;;;;;;29.60;22.90;;;;;;;5.29;79.38;97142.91;4992149;28;20042;-76
2024/03/04 04:58:20;;;;;;;27.17;22.65;;;;;;;5.18;79.87;97138.38;4988445;28;20065;-75
2024/03/04 05:00:46;;;;;;;28.38;22.80;;;;;;;5.18;79.42;97127.72;4997364;28;20045;-75
2024/03/04 05:03:11;;;;;;;33.25;25.25;;;;;;;5.22;80.14;97139.56;4981540;28;20022;-76
2024/03/04 05:05:37;;;;;;;29.75;24.20;;;;;;;5.19;80.04;97140.03;4976665;28;20038;-75
2024/03/04 05:08:05;;;;;;;30.13;24.52;;;;;;;5.21;79.70;97143.28;4972828;28;20534;-74
2024/03/04 05:10:30;;;;;;;36.22;27.20;;;;;;;5.16;79.50;97139.72;4982542;28;20108;-75
2024/03/04 05:12:56;;;;;;;31.00;25.50;;;;;;;5.07;80.38;97135.75;5008218;28;20038;-75
2024/03/04 05:15:21;;;;;;;37.78;28.50;;;;;;;5.10;81.21;97141.44;4997161;28;20069;-75
2024/03/04 05:17:47;;;;;;;37.53;27.50;;;;;;;4.93;81.18;97108.53;4996802;28;20110;-76
2024/03/04 05:20:15;;;;;;;48.97;33.60;;;;;;;5.07;80.32;97147.25;5014126;28;20125;-76
2024/03/04 05:22:42;;;;;;;35.65;27.90;;;;;;;5.16;81.74;97159.16;4994183;28;20022;-75
2024/03/04 05:25:08;;;;;;;37.42;28.25;;;;;;;5.18;81.67;97161.63;5006657;28;20452;-75
2024/03/04 05:27:33;;;;;;;36.05;29.23;;;;;;;5.17;81.15;97165.31;4988486;28;20031;-76
2024/03/04 05:29:59;;;;;;;35.53;28.77;;;;;;;5.16;81.25;97172.50;4990554;28;20034;-75
2024/03/04 05:32:25;;;;;;;43.28;32.03;;;;;;;5.06;80.67;97172.31;4984209;28;20410;-74
2024/03/04 05:34:51;;;;;;;59.33;38.30;;;;;;;4.79;81.49;97171.16;4989225;28;20518;-75
2024/03/04 05:37:17;;;;;;;38.92;29.30;;;;;;;4.88;80.64;97180.44;4988030;28;20025;-75
2024/03/04 05:39:48;;;;;;;34.60;25.88;;;;;;;4.94;80.53;97200.88;4989461;28;20486;-75
2024/03/04 05:42:14;;;;;;;34.60;26.25;;;;;;;4.80;81.09;97188.81;4963621;28;20506;-75
2024/03/04 05:44:42;;;;;;;36.95;27.85;;;;;;;4.78;80.90;97197.03;4991295;28;20034;-75
2024/03/04 05:47:08;;;;;;;33.38;26.48;;;;;;;4.75;80.17;97196.69;4998440;28;20041;-75
2024/03/04 05:49:35;;;;;;;34.40;26.00;;;;;;;4.72;79.97;97207.81;4991149;28;20398;-75
2024/03/04 05:52:01;;;;;;;34.20;26.55;;;;;;;4.68;79.91;97204.00;4989361;28;20035;-74
2024/03/04 05:54:26;;;;;;;31.92;25.95;;;;;;;4.74;80.64;97222.53;4975028;28;20069;-74
2024/03/04 05:56:51;;;;;;;33.58;25.88;;;;;;;4.67;80.52;97223.69;4989745;28;20082;-75
2024/03/04 05:59:18;;;;;;;32.13;24.30;;;;;;;4.55;79.85;97218.34;4986835;28;20130;-76
2024/03/04 06:01:45;;;;;;;32.88;24.77;;;;;;;4.65;80.16;97241.78;4980974;28;20069;-75
2024/03/04 06:04:10;;;;;;;31.65;23.98;;;;;;;4.50;79.80;97220.09;5015547;28;20065;-76
2024/03/04 06:06:36;;;;;;;29.25;24.60;;;;;;;4.54;79.65;97226.56;4974810;28;20126;-78
2024/03/04 06:09:15;;;;;;;32.45;24.40;;;;;;;4.57;79.29;97232.28;4991657;28;20058;-75
2024/03/04 06:11:42;;;;;;;34.05;25.75;;;;;;;4.47;79.64;97220.53;4983911;28;20046;-76
2024/03/04 06:14:08;;;;;;;32.08;27.05;;;;;;;4.38;80.11;97206.75;4982971;28;20022;-76
2024/03/04 06:16:33;;;;;;;35.47;31.52;;;;;;;4.51;80.03;97221.69;4993237;28;20413;-76
2024/03/04 06:18:58;;;;;;;38.92;30.77;;;;;;;4.45;79.96;97211.97;4981155;28;20085;-76
2024/03/04 06:21:24;;;;;;;37.65;31.55;;;;;;;4.65;80.55;97245.25;4979230;28;20023;-76
2024/03/04 06:23:49;;;;;;;36.75;29.75;;;;;;;4.55;80.52;97233.56;4979343;28;20569;-76
2024/03/04 06:26:15;;;;;;;37.45;28.83;;;;;;;4.57;80.80;97234.13;4986598;28;20093;-76
2024/03/04 06:28:40;;;;;;;43.95;32.50;;;;;;;4.65;80.45;97245.25;4983685;28;20030;-76
2024/03/04 06:31:06;;;;;;;42.20;34.03;;;;;;;4.49;80.72;97239.78;4979645;28;20053;-76
2024/03/04 06:33:31;;;;;;;46.47;32.97;;;;;;;4.53;80.20;97241.75;4983208;28;20023;-76
2024/03/04 06:35:57;;;;;;;50.80;36.10;;;;;;;4.41;81.17;97242.78;4988898;28;20031;-76
2024/03/04 06:38:24;;;;;;;40.75;30.40;;;;;;;4.49;80.87;97245.94;4989130;28;20023;-76
2024/03/04 06:40:49;;;;;;;43.85;31.42;;;;;;;4.61;80.30;97261.94;4980252;28;20045;-76
2024/03/04 06:43:15;;;;;;;43.90;31.45;;;;;;;4.61;80.69;97260.09;4976795;28;20108;-77
2024/03/04 06:45:41;;;;;;;44.58;32.85;;;;;;;4.63;80.29;97265.19;4990944;28;20138;-76
2024/03/04 06:48:06;;;;;;;44.70;31.58;;;;;;;4.71;80.93;97270.19;4991758;28;20033;-77
2024/03/04 06:50:32;;;;;;;37.35;30.00;;;;;;;4.65;81.29;97265.78;4961617;28;20030;-77
2024/03/04 06:52:59;;;;;;;37.20;29.50;;;;;;;4.74;80.95;97264.38;4994241;28;20031;-76
2024/03/04 06:55:24;;;;;;;50.42;37.08;;;;;;;4.77;81.41;97269.28;4985345;28;20042;-76
2024/03/04 06:57:50;;;;;;;49.70;38.25;;;;;;;4.82;81.66;97282.72;4977885;28;20102;-77
2024/03/04 07:00:16;;;;;;;44.47;35.00;;;;;;;4.81;81.71;97270.44;4980445;28;20038;-76
2024/03/04 07:02:41;;;;;;;41.40;33.85;;;;;;;4.88;81.01;97277.28;4978094;28;20072;-75
2024/03/04 07:05:07;;;;;;;41.08;32.83;;;;;;;4.97;81.69;97291.09;4992668;28;20046;-75
2024/03/04 07:07:32;;;;;;;43.72;35.30;;;;;;;4.88;81.59;97255.13;4968053;28;20113;-75
2024/03/04 07:09:57;;;;;;;47.58;35.95;;;;;;;4.93;81.78;97263.25;5006262;28;20113;-75
2024/03/04 07:12:23;;;;;;;48.35;38.03;;;;;;;5.07;82.04;97280.66;4996969;28;20098;-78
2024/03/04 07:14:48;;;;;;;46.20;36.10;;;;;;;5.17;82.49;97280.91;4976996;28;20415;-75
2024/03/04 07:17:14;;;;;;;42.90;33.92;;;;;;;5.20;82.90;97274.28;4980710;28;20030;-75
2024/03/04 07:19:39;;;;;;;44.63;34.42;;;;;;;5.30;82.35;97280.66;4973544;28;20113;-75
2024/03/04 07:22:05;;;;;;;56.45;42.78;;;;;;;5.26;83.09;97278.69;5010112;28;20034;-75
2024/03/04 07:24:31;;;;;;;49.83;38.35;;;;;;;5.43;83.57;97307.13;4975248;28;20045;-75
2024/03/04 07:26:56;;;;;;;55.25;42.15;;;;;;;5.35;83.61;97296.78;4995655;28;20030;-75
2024/03/04 07:29:21;;;;;;;51.88;39.83;;;;;;;5.32;83.80;97278.56;4998443;28;20546;-75
2024/03/04 07:31:49;;;;;;;51.90;39.88;;;;;;;5.51;84.25;97317.44;4974835;28;20030;-75
2024/03/04 07:34:14;;;;;;;52.40;41.20;;;;;;;5.60;84.21;97307.22;4995575;28;20034;-75
2024/03/04 07:36:40;;;;;;;50.13;39.25;;;;;;;5.44;84.21;97275.88;4994648;28;20133;-75
2024/03/04 07:39:07;;;;;;;49.95;39.33;;;;;;;5.70;84.13;97317.28;4978252;28;20045;-75
2024/03/04 07:41:34;;;;;;;48.45;37.20;;;;;;;5.68;85.03;97303.34;4994710;28;20022;-75
2024/03/04 07:43:59;;;;;;;46.65;37.33;;;;;;;5.72;85.85;97307.19;4973782;28;20251;-75
2024/03/04 07:46:25;;;;;;;46.17;35.80;;;;;;;5.75;85.89;97314.72;4990246;28;20495;-75
2024/03/04 07:48:50;;;;;;;41.40;33.40;;;;;;;5.65;85.75;97293.16;4992791;28;20042;-75
2024/03/04 07:51:15;;;;;;;42.47;33.55;;;;;;;5.90;85.64;97318.56;4962259;28;20026;-76
2024/03/04 07:53:41;;;;;;;39.33;31.83;;;;;;;5.86;85.83;97305.94;4992711;28;20088;-75
2024/03/04 07:56:06;;;;;;;42.03;32.50;;;;;;;5.92;86.00;97307.63;4993685;28;20446;-75
2024/03/04 07:58:33;;;;;;;40.72;32.60;;;;;;;5.93;85.34;97314.59;4989749;28;20080;-75
2024/03/04 08:00:59;;;;;;;45.88;34.35;;;;;;;6.06;85.91;97333.88;4986649;28;20056;-75
2024/03/04 08:03:24;;;;;;;41.30;33.08;;;;;;;6.05;85.70;97320.72;4992866;28;20066;-75
2024/03/04 08:05:49;;;;;;;45.55;33.63;;;;;;;6.23;85.41;97336.59;4978002;28;20509;-75
2024/03/04 08:08:15;;;;;;;39.60;31.20;;;;;;;6.34;85.42;97335.75;4976412;28;20104;-75
2024/03/04 08:10:40;;;;;;;41.00;33.00;;;;;;;6.40;86.00;97334.78;4976931;28;20027;-75
2024/03/04 08:13:06;;;;;;;42.35;32.55;;;;;;;6.31;85.22;97314.81;4976243;28;20445;-75
2024/03/04 08:15:31;;;;;;;41.17;32.40;;;;;;;6.56;85.61;97355.41;4987115;28;20026;-75
2024/03/04 08:17:56;;;;;;;37.45;30.35;;;;;;;6.59;85.01;97340.75;4981910;28;20065;-75
2024/03/04 08:20:22;;;;;;;40.97;31.60;;;;;;;6.65;86.00;97345.94;4992926;28;20026;-75
2024/03/04 08:22:49;;;;;;;38.90;31.55;;;;;;;6.67;86.01;97341.19;4977632;28;20066;-79
2024/03/04 08:25:16;;;;;;;40.95;32.20;;;;;;;6.91;85.35;97368.59;4984225;28;20054;-75
2024/03/04 08:27:42;;;;;;;36.00;29.00;;;;;;;6.80;85.99;97335.53;4985570;28;20046;-76
2024/03/04 08:30:09;;;;;;;36.33;29.80;;;;;;;6.92;85.69;97360.34;4963735;28;20026;-75
2024/03/04 08:32:35;;;;;;;34.10;27.88;;;;;;;7.02;85.88;97343.66;4991389;28;20126;-75
2024/03/04 08:35:00;;;;;;;34.75;29.23;;;;;;;7.17;85.30;97356.47;4978627;28;20117;-75
2024/03/04 08:37:27;;;;;;;35.60;28.13;;;;;;;7.28;85.29;97374.34;4975646;28;20955;-75
2024/03/04 08:39:52;;;;;;;30.60;26.63;;;;;;;7.18;85.06;97353.56;4960164;28;20117;-75
2024/03/04 08:42:18;;;;;;;34.60;27.67;;;;;;;7.38;84.95;97375.28;4992060;28;20383;-75
2024/03/04 08:44:43;;;;;;;35.47;27.30;;;;;;;7.43;83.97;97361.16;4976268;28;20019;-76
2024/03/04 08:47:09;;;;;;;33.00;26.70;;;;;;;7.37;83.68;97341.56;4976101;28;20110;-76
2024/03/04 08:49:35;;;;;;;31.85;26.33;;;;;;;7.61;84.12;97374.28;4984475;28;20030;-75
2024/03/04 08:52:01;;;;;;;29.92;25.38;;;;;;;7.70;84.34;97375.53;4984351;28;20042;-75
2024/03/04 08:54:29;;;;;;;32.70;25.92;;;;;;;7.68;83.96;97380.28;4972158;28;20532;-75
2024/03/04 08:56:54;;;;;;;29.10;24.88;;;;;;;7.81;82.99;97379.97;4992854;28;20030;-75
2024/03/04 08:59:19;;;;;;;30.92;26.15;;;;;;;7.94;83.63;97395.69;4971417;28;20177;-75
2024/03/04 09:01:45;;;;;;;29.15;24.60;;;;;;;7.90;82.49;97383.84;4982154;28;20444;-76
2024/03/04 09:04:10;;;;;;;29.25;24.27;;;;;;;8.04;82.55;97398.53;4981936;28;20027;-75
2024/03/04 09:06:36;;;;;;;30.20;24.85;;;;;;;8.19;82.30;97403.28;4971282;28;20441;-76
2024/03/04 09:09:02;;;;;;;30.63;25.02;;;;;;;8.15;82.43;97392.22;5011923;28;20032;-75
2024/03/04 09:11:27;;;;;;;30.38;24.38;;;;;;;8.36;82.43;97404.03;4980321;28;20513;-75
2024/03/04 09:13:55;;;;;;;29.33;23.77;;;;;;;8.26;82.26;97377.91;4994753;28;20402;-75
2024/03/04 09:16:20;;;;;;;34.75;24.45;;;;;;;8.54;82.05;97403.72;4972505;28;20576;-75
2024/03/04 09:18:46;;;;;;;28.55;23.10;;;;;;;8.58;81.47;97396.00;4977051;28;20117;-75
2024/03/04 09:21:12;;;;;;;30.55;24.02;;;;;;;8.73;81.30;97414.94;4991534;28;20053;-76
2024/03/04 09:23:40;;;;;;;27.23;22.63;;;;;;;8.74;80.56;97401.28;4987922;28;20049;-76
2024/03/04 09:26:09;;;;;;;27.88;23.52;;;;;;;8.84;80.84;97403.28;4989033;28;20437;-76
2024/03/04 09:28:35;;;;;;;30.38;23.58;;;;;;;8.86;79.68;97398.47;4968638;28;20434;-76
2024/03/04 09:31:00;;;;;;;28.75;23.40;;;;;;;8.91;79.40;97398.50;4995926;28;20550;-75
2024/03/04 09:33:25;;;;;;;25.77;22.40;;;;;;;9.05;80.05;97407.78;4979714;28;20062;-76
2024/03/04 09:35:51;;;;;;;28.20;22.52;;;;;;;9.13;79.07;97415.38;4981248;28;20426;-76
2024/03/04 09:38:16;;;;;;;27.42;22.40;;;;;;;9.16;79.27;97404.13;4979632;28;20034;-76
2024/03/04 09:40:45;;;;;;;26.20;22.02;;;;;;;9.29;79.21;97411.75;4981545;28;20044;-76
2024/03/04 09:43:12;;;;;;;27.35;22.10;;;;;;;9.38;79.18;97412.91;4975989;28;20084;-76
2024/03/04 09:45:39;;;;;;;24.10;20.63;;;;;;;9.49;79.17;97408.44;4971582;28;20405;-77
2024/03/04 09:48:05;;;;;;;27.45;22.27;;;;;;;9.60;78.42;97410.13;4988449;28;20022;-76
2024/03/04 09:50:30;;;;;;;28.20;22.50;;;;;;;9.68;78.37;97415.84;4971471;28;20514;-75
2024/03/04 09:52:56;;;;;;;26.13;21.27;;;;;;;9.81;77.83;97422.66;4973746;28;20029;-77
2024/03/04 09:55:22;;;;;;;26.38;21.40;;;;;;;9.77;77.73;97415.38;4984522;28;20038;-76
2024/03/04 09:57:47;;;;;;;27.10;21.45;;;;;;;9.78;77.71;97392.81;4984047;28;20089;-76
2024/03/04 10:00:14;;;;;;;28.20;20.85;;;;;;;9.99;77.26;97421.47;4990653;28;20494;-76
2024/03/04 10:02:43;;;;;;;23.90;20.02;;;;;;;10.00;77.56;97420.38;4974685;28;20022;-76
2024/03/04 10:05:09;;;;;;;26.02;21.50;;;;;;;10.09;77.14;97418.81;4985587;28;20060;-76
2024/03/04 10:07:36;;;;;;;24.77;20.25;;;;;;;10.13;76.56;97415.38;4990945;28;20088;-76
2024/03/04 10:10:05;;;;;;;26.17;20.83;;;;;;;10.21;76.13;97424.84;4973423;28;20035;-76
2024/03/04 10:12:31;;;;;;;29.60;21.17;;;;;;;10.26;76.40;97432.94;4980043;28;20494;-76
2024/03/04 10:14:59;;;;;;;27.48;21.15;;;;;;;10.38;75.38;97438.94;4992655;28;20053;-76
2024/03/04 10:17:25;;;;;;;26.45;20.15;;;;;;;10.41;75.51;97427.63;5010855;28;20482;-76
2024/03/04 10:20:00;;;;;;;27.13;21.15;;;;;;;10.51;74.52;97443.84;4991398;28;20121;-76
2024/03/04 10:22:37;;;;;;;27.20;21.35;;;;;;;10.43;74.48;97430.88;4981121;28;20045;-76
2024/03/04 10:25:06;;;;;;;26.02;20.40;;;;;;;10.59;74.43;97442.53;4986535;28;20040;-76
2024/03/04 10:27:33;;;;;;;24.70;19.67;;;;;;;10.58;74.25;97433.63;4978399;28;20042;-76
2024/03/04 10:30:13;;;;;;;26.55;20.50;;;;;;;10.55;73.65;97430.66;5012409;28;20036;-76
2024/03/04 10:33:05;;;;;;;24.10;19.98;;;;;;;10.72;73.43;97440.16;4974895;28;20042;-76
2024/03/04 10:35:31;;;;;;;25.35;19.67;;;;;;;10.74;73.47;97435.31;4989680;28;20620;-76
2024/03/04 10:38:02;;;;;;;24.92;20.08;;;;;;;10.86;73.29;97440.47;5000679;28;20564;-76
2024/03/04 10:40:30;;;;;;;26.38;20.30;;;;;;;10.85;73.40;97436.97;4976045;28;20070;-76
2024/03/04 10:42:58;;;;;;;25.02;19.98;;;;;;;10.85;73.26;97447.72;4994324;28;20390;-76
2024/03/04 10:45:28;;;;;;;25.08;19.90;;;;;;;10.85;73.16;97428.88;4988797;28;20042;-77
2024/03/04 10:47:55;;;;;;;23.42;18.45;;;;;;;10.85;73.02;97410.03;4991386;28;20042;-76
2024/03/04 10:50:20;;;;;;;24.55;19.15;;;;;;;11.09;72.72;97440.81;4973963;28;20101;-76
2024/03/04 10:52:46;;;;;;;26.15;20.40;;;;;;;11.07;73.38;97437.56;4987821;28;20406;-76
2024/03/04 10:55:14;;;;;;;25.13;20.08;;;;;;;11.17;73.43;97447.56;4993106;28;20060;-76
2024/03/04 10:57:44;;;;;;;24.83;19.02;;;;;;;11.32;72.89;97449.50;4987017;28;20089;-76
2024/03/04 11:00:17;;;;;;;22.88;18.83;;;;;;;11.41;72.21;97455.97;4983983;28;20038;-76
2024/03/04 11:02:45;;;;;;;24.88;19.67;;;;;;;11.52;72.44;97454.91;4982584;28;20092;-77
2024/03/04 11:05:11;;;;;;;23.70;18.98;;;;;;;11.49;72.35;97455.44;5021195;28;20033;-76
2024/03/04 11:07:42;;;;;;;25.02;18.83;;;;;;;11.39;72.29;97433.88;4971732;28;20410;-76
2024/03/04 11:10:30;;;;;;;23.92;18.60;;;;;;;11.52;70.50;97449.50;4992997;28;20081;-76
2024/03/04 11:13:22;;;;;;;24.10;19.15;;;;;;;11.43;70.79;97456.50;4986015;28;20042;-76
2024/03/04 11:15:56;;;;;;;22.67;18.38;;;;;;;11.57;70.48;97438.72;4987143;28;20418;-76
2024/03/04 11:19:00;;;;;;;20.77;17.77;;;;;;;11.69;70.05;97455.50;4982336;28;20093;-76
2024/03/04 11:21:25;;;;;;;23.75;19.48;;;;;;;11.80;69.32;97451.72;4998023;28;20042;-76